Camp Ground, Illinois
Current Conditions -  °F | °C
As of 10:35 AM on Friday 21 Nov 2014 (Local Time) from KMVN Reporting Station
Clear Clear  
Wind Chill: 27°   Ceiling: Unl
Heat Index: 34°   Visibility: 10mi
Dew Point: 18°   Wind: 8mph
Humidity: 52%   Direction: 130°SE
Pressure: 30.47"   Gusts: NA
Location:  38.3147°N, 88.9065°W
Report Text: KMVN 211635Z AUTO 13007KT 10SM CLR 01/M08 A3047 RMK AO1
Loading
Personal Weather Stations






























Interactive Weather Map New forecast layout! Learn more

10-Day Weather Forecast

Advertisements
Track Severe Weather on mobile